メインページ
METAR-TAF:

METAR-TAF

空港 :

カリスペル, モンタナ州, アメリカ合衆国

緯度: 48-18-15N, 経度: 114-15-49W, 海抜: 906m

現時点の気象観測

当レポートは57分前の01:55(UTC)に作成
無風
気温 2°C
湿度 87%
気圧 1015 hPa
視程: 16.1km
高度6000ftの曇り

METAR: KGPI 070155Z 00000KT 10SM OVC060 02/00 A2996 RMK AO2 SLP169 T00170000

時間: 19:52 (02:52 UTC)

予報

当レポートは3時間32分前の23:20(UTC)に作成
予報は07日の 00時(UTC)から 07日の 24時(UTC)まで有効
の風 kt
視程: 10km
高度5000ftの雲はほとんどない
高度12000ftの曇り
07日の 0300時(UTC)から
の風 kt
視程: 10km
高度5000ftの曇り
07日の 1000時(UTC)から
の風 3kt
視程: 8.0km
高度5000ftの曇り
靄, 近辺でにわか雨
07日の 1400時(UTC)から
の風 5kt
視程: 3.2km
高度2000ftの千切れ雲あり
高度3500ftの曇り
小雪
07日の 1800時(UTC)から
の風 5kt
視程: 6.4km
高度2500ftの千切れ雲あり
高度5000ftの曇り
小雨, 雪, 靄

TAF: KGPI 062320Z 0700/0724 00000KT P6SM FEW050 OVC120 FM070300 00000KT P6SM OVC050 FM071000 18003KT 5SM BR VCSH OVC050 FM071400 18005KT 2SM -SN BKN020 OVC035 FM071800 17005KT 4SM -RASN BR BKN025 OVC050

4,000以上の空港の気象観測と天気予報(METAR報とTAF報)

利用可能な観測所は地図上に黄色い丸と赤い丸で示す。

丸の上にカーソルを重ねると観測所名を参照できる。

次にクリックすると気象観測と天気予報を参照できる。

マップの切り替え:黒色「×」印の緑ボタンをクリックして拡大、「-」印の緑ボタンをクリックして縮小、緑色の三角印をクリックして隣りの地図に切り替え


METAR-TAF: